Latest Weather Observations for Cobar

IDN60801

Issued at 12:02 pm EDT Friday 24 February 2017 (issued every 30 minutes, with the page automatically refreshed every 10 minutes)

About weather observations | Map of weather stations | Latest weather observations for NSW | Other Formats
Station Details ID: 048027 Name: COBAR MO Lat: -31.48 Lon: 145.83 Height: 260.0 m
Data from the previous 72 hours. | See also: Recent months at Cobar
Date/Time
EDT
Temp
°C
App
Temp
°C
Dew
Point
°C
Rel
Hum
%
Delta-T
°C
Wind Press
QNH
hPa
Press
MSL
hPa
Rain since
9am
mm
Dir  Spd
km/h
Gust
km/h
Spd
kts
Gust
kts
24/12:00pm 32.6 28.8 6.0 19 14.4 S 15 20 8 11 1019.3 1017.7 -
24/11:30am 31.2 27.9 6.3 21 13.5 S 13 20 7 11 1019.6 1018.1 0.0
24/11:00am 30.3 26.2 6.2 22 12.9 S 17 24 9 13 1019.8 1018.3 0.0
24/10:30am 29.0 24.9 6.4 24 12.1 S 17 24 9 13 1019.7 1018.2 0.0
24/10:00am 27.9 23.9 6.6 26 11.4 S 17 24 9 13 1019.8 1018.3 0.0
24/09:30am 26.8 22.3 6.8 28 10.7 S 20 30 11 16 1019.8 1018.3 0.0
24/09:00am 25.4 21.1 7.1 31 9.7 SSE 19 30 10 16 1019.6 1018.1 0.0
24/08:30am 23.6 20.8 6.8 34 8.8 S 11 17 6 9 1019.5 1018.0 0.0
24/08:00am 22.1 19.2 6.7 37 8.0 SSW 11 17 6 9 1019.3 1017.7 0.0
24/07:30am 21.2 18.7 6.7 39 7.5 S 9 11 5 6 1018.9 1017.3 0.0
24/07:00am 21.3 18.8 6.4 38 7.6 SSW 9 13 5 7 1018.5 1016.9 0.0
24/06:30am 21.8 18.8 6.1 36 8.0 S 11 15 6 8 1018.2 1016.6 0.0
24/06:00am 22.2 19.2 6.0 35 8.3 S 11 13 6 7 1017.8 1016.2 0.0
24/05:30am 22.7 19.6 5.6 33 8.7 S 11 13 6 7 1017.6 1016.0 0.0
24/05:00am 23.3 19.9 5.7 32 9.0 SSW 13 17 7 9 1017.5 1015.9 0.0
24/04:30am 23.3 20.4 4.8 30 9.3 SSW 9 13 5 7 1017.4 1015.8 0.0
24/04:00am 25.1 21.6 5.3 28 10.2 S 13 19 7 10 1017.5 1015.9 0.0
24/03:30am 25.6 22.4 5.2 27 10.5 S 11 15 6 8 1017.6 1016.0 0.0
24/03:00am 26.0 22.8 5.0 26 10.8 S 11 17 6 9 1017.4 1015.8 0.0
24/02:30am 25.8 22.1 4.3 25 10.9 S 13 17 7 9 1017.5 1015.9 0.0
24/02:00am 24.6 21.2 2.1 23 10.9 S 9 11 5 6 1017.6 1016.0 0.0
24/01:30am 25.4 22.2 2.8 23 11.1 S 9 13 5 7 1017.8 1016.2 0.0
24/01:00am 25.6 21.4 1.7 21 11.5 SW 13 19 7 10 1017.6 1016.0 0.0
24/12:30am 27.0 23.5 1.4 19 12.4 S 9 11 5 6 1017.8 1016.2 0.0
24/12:00am 27.6 24.1 1.2 18 12.8 S 9 13 5 7 1017.7 1016.1 0.0
 
Date/Time
EDT
Temp
°C
App
Temp
°C
Dew
Point
°C
Rel
Hum
%
Delta-T
°C
Wind Press
QNH
hPa
Press
MSL
hPa
Rain since
9am
mm
Dir  Spd
km/h
Gust
km/h
Spd
kts
Gust
kts
23/11:30pm 27.9 24.3 0.6 17 13.1 SSW 9 13 5 7 1017.4 1015.8 0.0
23/11:00pm 28.9 25.3 0.6 16 13.7 SSW 9 13 5 7 1017.1 1015.5 0.0
23/10:30pm 28.8 25.2 0.5 16 13.7 SW 9 13 5 7 1017.0 1015.4 0.0
23/10:00pm 30.2 26.6 0.7 15 14.4 SSW 9 11 5 6 1016.8 1015.2 0.0
23/09:30pm 32.2 28.2 0.3 13 15.7 SSW 11 17 6 9 1016.5 1014.9 0.0
23/09:00pm 32.4 28.8 0.5 13 15.8 SSW 9 11 5 6 1016.0 1014.5 0.0
23/08:30pm 33.6 30.1 1.4 13 16.3 SSW 9 11 5 6 1015.6 1014.0 0.0
23/08:00pm 34.8 30.9 1.2 12 17.1 SSW 11 17 6 9 1015.3 1013.7 0.0
23/07:30pm 36.1 31.8 1.0 11 17.9 SW 13 20 7 11 1015.0 1013.4 0.0
23/07:00pm 37.4 33.6 2.0 11 18.5 SSW 11 17 6 9 1014.8 1013.2 0.0
23/06:30pm 37.0 31.5 0.4 10 18.6 SW 19 32 10 17 1014.7 1013.1 0.0
23/06:00pm 38.6 34.8 1.6 10 19.4 W 11 19 6 10 1014.6 1013.0 0.0
23/05:30pm 37.6 34.6 2.1 11 18.6 SSW 7 13 4 7 1014.6 1013.0 0.0
23/05:00pm 37.0 32.6 2.9 12 18.0 SW 15 26 8 14 1014.7 1013.1 0.0
23/04:30pm 39.0 35.2 1.9 10 19.5 W 11 22 6 12 1014.7 1013.1 0.0
23/04:00pm 38.4 35.2 2.8 11 18.9 WSW 9 17 5 9 1015.0 1013.4 0.0
23/03:30pm 38.1 35.0 3.8 12 18.5 SSE 9 15 5 8 1015.2 1013.6 0.0
23/03:00pm 36.7 32.1 3.8 13 17.6 WSW 17 24 9 13 1015.7 1014.1 0.0
23/02:30pm 36.7 32.9 3.8 13 17.6 WNW 13 17 7 9 1015.9 1014.3 0.0
23/02:00pm 38.1 33.3 2.5 11 18.8 WNW 17 32 9 17 1016.1 1014.6 0.0
23/01:30pm 37.2 33.7 5.3 14 17.5 NE 13 20 7 11 1016.4 1014.8 0.0
23/01:00pm 37.2 34.6 6.3 15 17.2 WNW 9 19 5 10 1016.9 1015.3 0.0
23/12:36pm 37.2 33.9 8.1 17 16.7 NNW 15 28 8 15 1017.1 1015.5 0.0
23/12:30pm 36.2 33.5 8.9 19 15.8 NNW 13 24 7 13 1017.2 1015.6 0.0
23/12:21pm 37.0 34.1 9.6 19 16.1 NNW 15 26 8 14 1017.4 1015.8 0.0
23/12:02pm 35.4 32.0 10.4 22 14.7 NNW 19 26 10 14 1017.5 1015.9 0.0
23/12:00pm 36.0 32.9 10.2 21 15.2 NNW 17 26 9 14 1017.5 1015.9 0.0
23/11:30am 35.7 32.9 11.4 23 14.5 NNW 17 24 9 13 1017.7 1016.1 0.0
23/11:25am 35.1 32.5 12.1 25 13.9 N 17 24 9 13 1017.7 1016.1 0.0
23/11:00am 34.4 30.9 12.1 26 13.4 NNE 22 32 12 17 1017.5 1015.9 0.0
23/10:30am 33.1 28.4 12.1 27 12.6 N 28 39 15 21 1017.5 1015.9 0.0
23/10:00am 31.5 26.9 12.3 31 11.4 N 28 37 15 20 1017.5 1015.9 0.0
23/09:30am 30.3 26.4 12.2 33 10.7 N 24 32 13 17 1017.5 1015.9 0.0
23/09:00am 28.8 25.3 12.2 35 9.8 NNE 22 30 12 16 1017.1 1015.5 0.0
23/08:30am 27.4 24.2 11.8 38 9.1 NNE 20 26 11 14 1017.0 1015.4 0.0
23/08:00am 26.0 23.3 11.7 41 8.2 NE 17 22 9 12 1016.7 1015.1 0.0
23/07:30am 24.2 22.2 11.5 45 7.2 NE 13 17 7 9 1016.2 1014.7 0.0
23/07:00am 23.7 21.7 11.4 46 7.0 NE 13 15 7 8 1015.9 1014.3 0.0
23/06:30am 24.5 22.4 11.1 43 7.6 NE 13 17 7 9 1015.6 1014.0 0.0
23/06:00am 24.8 22.2 10.7 41 8.0 NNE 15 17 8 9 1015.2 1013.6 0.0
23/05:30am 25.3 22.6 10.4 39 8.4 NNE 15 19 8 10 1015.0 1013.4 0.0
23/05:00am 25.4 22.6 10.1 38 8.6 NNE 15 19 8 10 1014.9 1013.3 0.0
23/04:30am 25.5 22.6 9.7 37 8.8 NE 15 19 8 10 1014.8 1013.2 0.0
23/04:00am 25.0 21.6 9.3 37 8.7 NE 17 20 9 11 1014.7 1013.1 0.0
23/03:30am 24.7 21.5 8.6 36 8.8 NE 15 17 8 9 1014.8 1013.2 0.0
23/03:00am 25.0 21.8 8.5 35 9.0 NE 15 17 8 9 1015.0 1013.4 0.0
23/02:30am 25.5 22.2 8.1 33 9.4 NE 15 17 8 9 1015.0 1013.4 0.0
23/02:00am 26.1 23.2 8.1 32 9.8 NE 13 15 7 8 1015.1 1013.5 0.0
23/01:30am 26.9 23.6 7.9 30 10.3 NE 15 17 8 9 1015.2 1013.6 0.0
23/01:00am 27.3 23.9 7.7 29 10.6 NE 15 17 8 9 1015.3 1013.7 0.0
23/12:30am 27.1 23.2 7.0 28 10.8 ENE 17 19 9 10 1015.3 1013.7 0.0
23/12:00am 26.8 23.5 6.2 27 10.9 NE 13 15 7 8 1015.8 1014.2 0.0
 
Date/Time
EDT
Temp
°C
App
Temp
°C
Dew
Point
°C
Rel
Hum
%
Delta-T
°C
Wind Press
QNH
hPa
Press
MSL
hPa
Rain since
9am
mm
Dir  Spd
km/h
Gust
km/h
Spd
kts
Gust
kts
22/11:30pm 27.4 23.8 5.1 24 11.6 NE 13 15 7 8 1015.7 1014.1 0.0
22/11:00pm 27.1 23.2 3.6 22 11.9 N 13 15 7 8 1015.6 1014.0 0.0
22/10:30pm 28.3 23.9 2.5 19 12.9 ENE 15 17 8 9 1015.3 1013.7 0.0
22/10:00pm 28.5 24.7 1.9 18 13.1 NE 11 13 6 7 1014.9 1013.3 0.0
22/09:30pm 29.3 25.0 0.9 16 13.9 NE 13 13 7 7 1014.5 1012.9 0.0
22/09:00pm 29.8 25.8 0.4 15 14.3 NE 11 11 6 6 1014.2 1012.6 0.0
22/08:30pm 30.6 26.5 0.1 14 14.8 NNE 11 13 6 7 1013.8 1012.2 0.0
22/08:00pm 32.0 28.2 -0.9 12 15.9 NNE 9 13 5 7 1013.4 1011.8 0.0
22/07:30pm 34.0 30.0 -1.9 10 17.3 N 9 13 5 7 1013.2 1011.6 0.0
22/07:00pm 34.9 30.9 -2.6 9 18.0 NNW 9 15 5 8 1013.1 1011.5 0.0
22/06:30pm 35.5 30.7 -2.2 9 18.2 N 13 22 7 12 1013.0 1011.4 0.0
22/06:00pm 35.9 31.2 -1.9 9 18.4 NNE 13 26 7 14 1012.9 1011.3 0.0
22/05:30pm 36.1 31.6 -3.3 8 18.8 NNE 11 19 6 10 1013.1 1011.5 0.0
22/05:00pm 36.3 31.8 -3.2 8 18.9 WNW 11 19 6 10 1013.3 1011.7 0.0
22/04:30pm 35.4 30.5 -3.8 8 18.5 E 13 20 7 11 1013.4 1011.8 0.0
22/04:00pm 35.0 30.0 -4.1 8 18.3 N 13 26 7 14 1013.9 1012.3 0.0
22/03:30pm 35.5 30.0 -2.2 9 18.2 N 17 28 9 15 1014.3 1012.7 0.0
22/03:00pm 35.0 29.4 -2.6 9 18.0 NE 17 28 9 15 1014.8 1013.2 0.0
22/02:30pm 34.6 29.0 -2.9 9 17.8 ENE 17 24 9 13 1015.3 1013.7 0.0
22/02:00pm 34.9 29.3 -2.6 9 17.9 NNE 17 28 9 15 1015.7 1014.1 0.0
22/01:30pm 33.5 28.7 -2.3 10 17.1 NE 13 22 7 12 1016.1 1014.6 0.0
22/01:00pm 33.2 27.3 -2.5 10 16.9 N 19 32 10 17 1016.7 1015.1 0.0
22/12:30pm 33.4 27.5 -1.0 11 16.7 NNE 20 28 11 15 1017.0 1015.4 0.0
22/12:00pm 33.2 27.4 -1.2 11 16.6 NNE 19 28 10 15 1017.3 1015.7 0.0
22/11:30am 32.1 26.2 -2.0 11 16.2 N 19 28 10 15 1017.6 1016.0 0.0
22/11:00am 30.9 24.9 -3.0 11 15.6 NE 19 24 10 13 1017.9 1016.3 0.0
22/10:30am 30.1 24.0 -3.6 11 15.3 NE 19 24 10 13 1018.1 1016.5 0.0
22/10:00am 28.9 21.8 -4.5 11 14.8 NE 24 35 13 19 1018.0 1016.4 0.0
22/09:30am 27.3 20.9 -4.6 12 13.9 NE 20 30 11 16 1018.1 1016.5 0.0
22/09:00am 25.8 19.5 -3.7 14 12.9 ENE 20 26 11 14 1018.0 1016.4 0.0
22/08:30am 23.8 17.7 -3.5 16 11.8 ENE 19 26 10 14 1017.8 1016.2 0.0
22/08:00am 21.6 16.8 -2.3 20 10.4 ENE 13 17 7 9 1017.6 1016.0 0.0
22/07:30am 19.7 14.9 -2.6 22 9.5 E 13 17 7 9 1017.2 1015.6 0.0
22/07:00am 19.3 13.8 -2.3 23 9.2 ENE 17 20 9 11 1017.0 1015.4 0.0
22/06:30am 18.3 13.1 -2.6 24 8.7 E 15 19 8 10 1016.6 1015.0 0.0
22/06:00am 19.3 13.8 -2.3 23 9.2 ENE 17 22 9 12 1016.2 1014.7 0.0
22/05:30am 19.4 13.9 -2.2 23 9.2 E 17 22 9 12 1016.0 1014.5 0.0
22/05:00am 18.8 14.0 -2.2 24 8.9 E 13 17 7 9 1015.9 1014.3 0.0
22/04:30am 18.5 13.7 -2.4 24 8.8 ESE 13 17 7 9 1015.8 1014.2 0.0
22/04:00am 18.7 13.9 -2.3 24 8.9 ESE 13 17 7 9 1015.7 1014.1 0.0
22/03:30am 18.8 14.1 -1.6 25 8.8 E 13 17 7 9 1015.3 1013.7 0.0
22/03:00am 18.2 13.5 -1.6 26 8.4 E 13 15 7 8 1015.6 1014.0 0.0
22/02:30am 18.5 14.2 -1.3 26 8.5 E 11 13 6 7 1015.8 1014.2 0.0
22/02:00am 19.4 15.5 -1.7 24 9.1 E 9 13 5 7 1015.9 1014.3 0.0
22/01:30am 20.8 16.1 -1.7 22 9.8 ENE 13 15 7 8 1016.1 1014.6 0.0
22/01:00am 21.7 16.9 -2.2 20 10.4 ENE 13 17 7 9 1016.2 1014.7 0.0
22/12:30am 21.6 16.9 -1.6 21 10.2 E 13 17 7 9 1016.6 1015.0 0.0
22/12:00am 21.7 17.0 -1.6 21 10.2 E 13 15 7 8 1016.8 1015.2 0.0
 
Date/Time
EDT
Temp
°C
App
Temp
°C
Dew
Point
°C
Rel
Hum
%
Delta-T
°C
Wind Press
QNH
hPa
Press
MSL
hPa
Rain since
9am
mm
Dir  Spd
km/h
Gust
km/h
Spd
kts
Gust
kts
21/11:30pm 22.7 17.7 -1.4 20 10.7 E 15 17 8 9 1017.1 1015.5 0.0
21/11:00pm 23.1 18.9 -1.1 20 10.9 E 11 13 6 7 1017.4 1015.8 0.0
21/10:30pm 23.7 19.8 -1.3 19 11.3 E 9 11 5 6 1017.4 1015.8 0.0
21/10:00pm 24.3 20.4 -1.5 18 11.6 E 9 11 5 6 1017.2 1015.6 0.0
21/09:30pm 24.9 21.0 -1.8 17 12.0 E 9 9 5 5 1016.9 1015.3 0.0
21/09:00pm 25.9 22.0 -1.8 16 12.6 ENE 9 9 5 5 1016.5 1014.9 0.0
21/08:30pm 26.8 23.4 -2.0 15 13.1 ENE 6 7 3 4 1016.2 1014.7 0.0
21/08:00pm 28.0 24.9 -3.0 13 14.0 ENE 4 6 2 3 1016.0 1014.5 0.0
21/07:30pm 29.4 26.3 -2.9 12 14.8 ESE 4 9 2 5 1015.8 1014.2 0.0
21/07:00pm 30.6 26.9 -4.4 10 15.7 ESE 6 13 3 7 1015.6 1014.0 0.0
21/06:30pm 30.6 26.9 -4.4 10 15.8 ESE 6 11 3 6 1015.6 1014.0 0.0
21/06:00pm 30.7 26.8 -4.4 10 15.8 NW 7 11 4 6 1015.5 1013.9 0.0
21/05:30pm 31.4 27.2 -3.8 10 16.1 SSW 9 13 5 7 1015.5 1013.9 0.0
21/05:00pm 30.8 26.2 -4.3 10 15.8 SSW 11 20 6 11 1015.7 1014.1 0.0
21/04:30pm 30.4 25.4 -4.6 10 15.7 ENE 13 19 7 10 1015.9 1014.3 0.0
21/04:00pm 30.0 25.8 -3.6 11 15.2 SE 9 19 5 10 1016.2 1014.7 0.0
21/03:30pm 29.2 25.1 -3.1 12 14.7 E 9 15 5 8 1016.5 1014.9 0.0
21/03:00pm 29.7 25.6 -2.7 12 14.9 E 9 15 5 8 1017.0 1015.4 0.0
21/02:30pm 28.6 24.9 -2.5 13 14.2 W 7 15 4 8 1017.3 1015.7 0.0
21/02:00pm 28.7 24.3 -2.4 13 14.3 S 11 17 6 9 1017.8 1016.2 0.0
21/01:30pm 27.3 24.0 -1.6 15 13.3 SSW 6 15 3 8 1018.2 1016.6 0.0
21/01:00pm 27.2 23.4 -0.8 16 13.1 S 9 15 5 8 1018.5 1016.9 0.0
21/12:30pm 26.5 22.2 -1.3 16 12.8 S 11 17 6 9 1019.0 1017.4 0.0

Other Formats:

Comma delimited format used in spreadsheet applications
http://www.bom.gov.au/fwo/IDN60801/IDN60801.94711.axf

JavaScript Object Notation format (JSON) in row-major order
http://www.bom.gov.au/fwo/IDN60801/IDN60801.94711.json